Time;durP1;ratioP1;P1;durP2;ratioP2;P2;SDS_P1;SDS_P2;PMS_P1;PMS_P2;Temp;Humidity;BMP_temperature;BMP_pressure;BME280_temperature;BME280_humidity;BME280_pressure;Samples;Min_cycle;Max_cycle;Signal;HPM_P1;HPM_P2
2021/12/11 00:01:18;;;;;;;94.67;40.90;;;;;;;-2.83;100.00;99706.25;5146751;57;1141260;-79
2021/12/11 00:06:28;;;;;;;105.80;40.73;;;;;;;-2.92;100.00;99708.73;5147426;57;1139092;-79
2021/12/11 00:11:39;;;;;;;87.57;36.77;;;;;;;-3.00;100.00;99709.89;5116806;57;1141532;-81
2021/12/11 00:16:45;;;;;;;105.23;39.47;;;;;;;-3.08;100.00;99715.34;5111456;57;1139252;-80
2021/12/11 00:21:53;;;;;;;89.60;34.97;;;;;;;-3.15;100.00;99710.43;5115825;57;1141176;-81
2021/12/11 00:27:10;;;;;;;114.17;39.63;;;;;;;-3.16;100.00;99721.22;5096623;57;1136990;-81
2021/12/11 00:32:26;;;;;;;103.13;40.47;;;;;;;-3.19;100.00;99727.78;5068680;57;1143155;-81
2021/12/11 00:37:32;;;;;;;93.20;40.60;;;;;;;-3.19;100.00;99732.50;5069550;57;1143496;-80
2021/12/11 00:42:40;;;;;;;115.93;42.13;;;;;;;-3.25;100.00;99737.91;5069403;57;1141151;-80
2021/12/11 00:47:53;;;;;;;99.33;39.60;;;;;;;-3.26;100.00;99745.27;5109599;56;1143246;-80
2021/12/11 00:53:13;;;;;;;101.13;40.90;;;;;;;-3.21;100.00;99751.58;5207978;56;1141072;-80
2021/12/11 00:58:26;;;;;;;105.27;42.13;;;;;;;-3.29;100.00;99758.73;5208303;56;1143559;-79
2021/12/11 01:03:37;;;;;;;97.67;38.60;;;;;;;-3.36;100.00;99758.08;5206748;56;1143846;-79
2021/12/11 01:08:48;;;;;;;99.37;36.90;;;;;;;-3.50;100.00;99757.69;5197474;56;1141298;-79
2021/12/11 01:14:51;;;;;;;99.57;38.40;;;;;;;-3.57;100.00;99766.11;5136232;57;1141035;-80
2021/12/11 01:19:23;;;;;;;95.67;39.03;;;;;;;-3.64;100.00;99771.51;5073359;57;1141177;-79
2021/12/11 01:24:44;;;;;;;99.10;37.57;;;;;;;-3.70;100.00;99776.89;5075649;57;1141705;-78
2021/12/11 01:29:56;;;;;;;99.53;39.87;;;;;;;-3.78;100.00;99789.18;5075621;57;1141383;-79
2021/12/11 01:35:04;;;;;;;102.50;39.83;;;;;;;-3.80;100.00;99793.10;5076457;57;1141167;-80
2021/12/11 01:40:14;;;;;;;108.67;42.03;;;;;;;-3.83;100.00;99806.58;5089070;57;1143183;-79
2021/12/11 01:45:20;;;;;;;95.83;36.70;;;;;;;-3.83;100.00;99812.59;5069244;57;1143203;-78
2021/12/11 01:50:36;;;;;;;96.27;38.03;;;;;;;-3.87;100.00;99808.41;5069131;57;1141411;-81
2021/12/11 01:55:55;;;;;;;93.43;38.50;;;;;;;-3.99;100.00;99811.36;5069458;57;1141283;-78
2021/12/11 02:01:06;;;;;;;91.33;39.33;;;;;;;-4.10;100.00;99819.41;5068963;57;1138987;-81
2021/12/11 02:06:13;;;;;;;88.37;34.60;;;;;;;-4.20;100.00;99825.73;5068689;57;1139064;-81
2021/12/11 02:11:24;;;;;;;80.60;32.40;;;;;;;-4.30;100.00;99830.33;5155500;56;1139250;-79
2021/12/11 02:16:44;;;;;;;90.20;36.37;;;;;;;-4.33;100.00;99858.80;5227442;56;1139457;-78
2021/12/11 02:21:59;;;;;;;94.53;38.07;;;;;;;-4.41;100.00;99844.39;5226607;56;1139377;-80
2021/12/11 02:27:16;;;;;;;92.37;34.50;;;;;;;-4.45;100.00;99844.95;5225430;56;1139579;-81
2021/12/11 02:32:36;;;;;;;99.40;37.13;;;;;;;-4.50;100.00;99851.11;5225729;56;1139287;-80
2021/12/11 02:37:52;;;;;;;100.07;36.67;;;;;;;-4.45;100.00;99859.59;5226772;56;1141565;-80
2021/12/11 02:43:17;;;;;;;101.73;37.23;;;;;;;-4.47;100.00;99860.06;5230527;56;1143195;-79
2021/12/11 02:48:30;;;;;;;89.30;37.33;;;;;;;-4.42;100.00;99875.81;5183158;56;1143177;-81
2021/12/11 02:53:40;;;;;;;107.00;38.60;;;;;;;-4.39;100.00;99890.37;5144523;57;1141096;-80
2021/12/11 02:58:52;;;;;;;102.23;38.70;;;;;;;-4.40;100.00;99895.13;5143441;56;1143299;-80
2021/12/11 03:04:16;;;;;;;98.80;37.80;;;;;;;-4.36;100.00;99894.16;5144905;56;1143172;-81
2021/12/11 03:09:20;;;;;;;103.43;38.60;;;;;;;-4.34;100.00;99905.30;5142017;56;1141402;-80
2021/12/11 03:14:29;;;;;;;107.50;39.17;;;;;;;-4.33;100.00;99909.13;5128678;57;1143169;-79
2021/12/11 03:19:39;;;;;;;110.67;40.70;;;;;;;-4.25;100.00;99906.33;5130864;57;1143134;-81
2021/12/11 03:24:45;;;;;;;103.27;40.37;;;;;;;-4.30;100.00;99912.92;5131428;56;1143195;-81
2021/12/11 03:29:52;;;;;;;102.60;39.10;;;;;;;-4.33;100.00;99912.16;5142973;56;1143383;-80
2021/12/11 03:34:58;;;;;;;108.00;41.27;;;;;;;-4.36;99.97;99921.27;5143069;57;1143666;-80
2021/12/11 03:40:08;;;;;;;101.02;38.33;;;;;;;-4.43;99.94;99928.78;5137141;57;1141090;-78
2021/12/11 03:45:21;;;;;;;102.60;39.13;;;;;;;-4.58;98.81;99934.34;5131499;57;1141583;-81
2021/12/11 03:50:29;;;;;;;95.77;38.30;;;;;;;-4.71;99.30;99929.91;5158571;56;1141032;-80
2021/12/11 03:55:42;;;;;;;99.77;37.47;;;;;;;-4.69;99.93;99943.17;5170487;56;1138968;-79
2021/12/11 04:00:55;;;;;;;101.57;37.60;;;;;;;-4.70;99.44;99947.92;5164885;56;1139257;-78
2021/12/11 04:06:06;;;;;;;106.77;39.73;;;;;;;-4.71;99.43;99959.12;5135893;57;1141123;-80
2021/12/11 04:11:16;;;;;;;103.63;36.87;;;;;;;-4.72;99.47;99963.03;5142605;57;1141166;-79
2021/12/11 04:16:23;;;;;;;104.77;39.93;;;;;;;-4.72;99.29;99961.74;5142846;57;1139379;-79
2021/12/11 04:21:29;;;;;;;103.43;40.27;;;;;;;-4.77;99.47;99978.64;5143008;57;1138989;-81
2021/12/11 04:26:36;;;;;;;108.17;41.53;;;;;;;-4.73;99.54;99991.00;5142831;57;1139320;-80
2021/12/11 04:31:46;;;;;;;95.07;36.28;;;;;;;-4.80;98.71;99987.73;5142490;57;1139033;-80
2021/12/11 04:37:03;;;;;;;112.70;38.83;;;;;;;-4.80;99.27;100001.08;5142757;57;1137010;-78
2021/12/11 04:42:26;;;;;;;113.07;41.40;;;;;;;-4.78;99.54;100009.19;5134969;57;1141132;-78
2021/12/11 04:47:49;;;;;;;115.50;41.85;;;;;;;-4.71;99.92;100021.48;5146371;56;1141012;-77
2021/12/11 04:52:57;;;;;;;110.10;41.17;;;;;;;-4.66;99.90;100033.41;5216188;56;1141268;-80
2021/12/11 05:14:07;;;;;;;121.37;42.30;;;;;;;-4.70;98.87;100061.88;5309375;55;1143255;-81
2021/12/11 05:19:14;;;;;;;121.57;44.63;;;;;;;-4.78;99.04;100067.23;5310666;55;1143299;-80
2021/12/11 05:24:20;;;;;;;130.83;43.47;;;;;;;-4.81;99.25;100073.73;5315600;55;1143276;-77
2021/12/11 05:29:27;;;;;;;120.50;45.07;;;;;;;-4.80;99.52;100075.88;5331912;55;1143394;-79
2021/12/11 05:34:33;;;;;;;121.87;44.00;;;;;;;-4.73;99.93;100083.42;5329657;55;1143310;-79
2021/12/11 05:39:40;;;;;;;124.12;42.50;;;;;;;-4.84;98.42;100091.00;5321863;55;1143195;-80
2021/12/11 05:44:46;;;;;;;123.83;45.13;;;;;;;-4.91;98.66;100095.46;5322220;55;1143178;-78
2021/12/11 05:49:52;;;;;;;113.93;42.83;;;;;;;-5.09;97.78;100091.98;5258024;55;1143193;-81
2021/12/11 05:54:58;;;;;;;114.33;40.53;;;;;;;-5.19;97.72;100103.37;5232771;56;1143157;-77
2021/12/11 06:00:09;;;;;;;123.23;44.70;;;;;;;-5.32;97.45;100107.89;5235644;56;1143263;-77
2021/12/11 06:05:14;;;;;;;127.67;41.97;;;;;;;-5.38;97.66;100110.17;5232331;56;1143511;-76
2021/12/11 06:10:23;;;;;;;124.80;44.13;;;;;;;-5.37;97.71;100111.02;5232463;56;1143241;-81
2021/12/11 06:15:31;;;;;;;135.17;44.63;;;;;;;-5.38;98.26;100115.33;5223554;56;1143389;-79
2021/12/11 06:20:37;;;;;;;125.73;43.67;;;;;;;-5.31;98.19;100122.05;5132658;56;1143212;-80
2021/12/11 06:25:46;;;;;;;141.17;49.70;;;;;;;-5.27;98.20;100131.01;5130621;57;1143157;-79
2021/12/11 06:30:58;;;;;;;130.33;45.53;;;;;;;-5.30;97.80;100142.22;5168849;56;1143365;-82
2021/12/11 06:36:14;;;;;;;121.53;42.93;;;;;;;-5.35;97.31;100146.63;5169082;56;1143347;-78
2021/12/11 06:41:21;;;;;;;118.87;39.97;;;;;;;-5.46;96.52;100156.27;5132008;57;1143299;-80
2021/12/11 06:46:27;;;;;;;113.03;41.20;;;;;;;-5.54;96.22;100158.15;5134815;56;1143349;-78
2021/12/11 06:51:34;;;;;;;106.17;39.53;;;;;;;-5.67;96.22;100167.83;5217490;56;1143309;-79
2021/12/11 06:56:42;;;;;;;117.57;43.30;;;;;;;-5.72;96.40;100177.34;5215700;56;1143267;-80
2021/12/11 07:01:49;;;;;;;133.27;46.30;;;;;;;-5.74;96.32;100190.69;5190241;56;1143128;-77
2021/12/11 07:06:55;;;;;;;117.47;39.90;;;;;;;-5.69;96.76;100211.64;5192778;56;1141157;-79
2021/12/11 07:12:01;;;;;;;96.63;37.57;;;;;;;-5.77;95.61;100212.62;5164696;56;1141134;-82
2021/12/11 07:17:07;;;;;;;108.33;39.47;;;;;;;-5.75;96.50;100218.16;5161533;56;1138996;-82
2021/12/11 07:22:15;;;;;;;105.03;38.80;;;;;;;-5.73;95.98;100224.58;5176343;56;1141304;-83
2021/12/11 07:27:22;;;;;;;104.35;40.00;;;;;;;-5.82;95.23;100229.89;5177779;56;1141091;-82
2021/12/11 07:32:27;;;;;;;122.60;40.43;;;;;;;-5.81;95.70;100231.16;5178858;56;1141149;-81
2021/12/11 07:37:33;;;;;;;125.73;43.33;;;;;;;-5.81;95.64;100239.32;5154553;57;1141190;-83
2021/12/11 07:42:39;;;;;;;146.90;51.53;;;;;;;-5.92;95.49;100251.52;5182038;56;1141133;-83
2021/12/11 07:47:45;;;;;;;110.30;38.07;;;;;;;-5.97;95.42;100260.62;5187000;56;1141261;-82
2021/12/11 07:52:51;;;;;;;110.00;37.20;;;;;;;-5.84;96.42;100276.70;5060524;57;1141154;-81
2021/12/11 07:57:58;;;;;;;108.10;39.20;;;;;;;-5.67;96.33;100283.73;5141440;57;1141143;-86
2021/12/11 08:03:06;;;;;;;130.53;56.07;;;;;;;-5.53;96.70;100297.69;5070923;57;1141034;-82
2021/12/11 08:08:12;;;;;;;101.97;38.23;;;;;;;-5.31;96.86;100314.05;5025387;57;1141079;-82
2021/12/11 08:13:18;;;;;;;104.17;40.00;;;;;;;-5.18;96.23;100312.55;5062569;58;1141447;-84
2021/12/11 08:18:27;;;;;;;100.23;39.67;;;;;;;-5.10;96.24;100320.58;5122079;57;1141051;-82
2021/12/11 08:23:32;;;;;;;96.60;36.97;;;;;;;-5.14;95.48;100318.92;5219011;55;1141228;-84
2021/12/11 08:28:38;;;;;;;87.37;30.63;;;;;;;-4.98;96.46;100328.54;5180418;55;1137179;-82
2021/12/11 08:33:44;;;;;;;112.87;48.43;;;;;;;-4.94;95.21;100319.03;5200129;55;1137078;-81
2021/12/11 08:38:51;;;;;;;90.85;33.65;;;;;;;-5.07;95.26;100326.98;5229742;56;1143176;-83
2021/12/11 08:44:06;;;;;;;102.10;40.30;;;;;;;-4.95;96.04;100325.91;5210244;55;1141145;-81
2021/12/11 08:49:12;;;;;;;105.83;40.77;;;;;;;-4.95;95.53;100343.97;5218811;56;1143081;-82
2021/12/11 08:54:20;;;;;;;112.57;41.70;;;;;;;-4.81;96.26;100343.72;5218864;56;1143214;-81
2021/12/11 08:59:29;;;;;;;115.43;44.93;;;;;;;-4.75;95.86;100334.59;5218396;56;1143184;-81
2021/12/11 09:04:55;;;;;;;106.45;45.48;;;;;;;-4.69;95.85;100343.49;5214820;56;1143540;-81
2021/12/11 09:10:13;;;;;;;113.88;43.78;;;;;;;-4.69;95.23;100348.66;5183806;56;1143145;-82
2021/12/11 09:15:33;;;;;;;142.63;52.00;;;;;;;-4.66;95.44;100363.64;5206290;56;1143252;-82
2021/12/11 09:20:57;;;;;;;135.00;52.57;;;;;;;-4.59;95.63;100376.45;5216815;55;1143262;-82
2021/12/11 09:26:26;;;;;;;108.17;42.03;;;;;;;-4.46;96.00;100380.50;5193541;56;1143233;-82
2021/12/11 09:31:48;;;;;;;150.83;52.47;;;;;;;-4.41;95.41;100386.41;5175403;55;1143481;-82
2021/12/11 09:36:59;;;;;;;94.30;34.53;;;;;;;-4.39;96.15;100390.66;5065664;57;1143505;-82
2021/12/11 09:42:03;;;;;;;109.57;46.77;;;;;;;-4.27;96.45;100394.30;4993882;58;1141171;-82
2021/12/11 09:47:22;;;;;;;151.10;65.20;;;;;;;-4.15;96.73;100404.85;5084122;57;1143447;-82
2021/12/11 09:52:32;;;;;;;107.77;46.23;;;;;;;-4.07;96.09;100399.08;5068642;57;1141230;-81
2021/12/11 09:57:46;;;;;;;236.67;122.50;;;;;;;-4.16;95.26;100405.73;5045027;58;1141217;-81
2021/12/11 10:02:51;;;;;;;;;;;;;;;-4.11;96.17;100422.40;5111084;57;1143327;-81
2021/12/11 10:08:28;;;;;;;127.40;52.17;;;;;;;-4.02;96.50;100423.09;5131283;57;972532;-81
2021/12/11 10:13:11;;;;;;;122.23;47.07;;;;;;;-4.01;96.03;100423.95;5198468;55;1139003;-81
2021/12/11 10:18:24;;;;;;;140.53;51.63;;;;;;;-3.99;96.21;100444.14;5174351;55;1141155;-81
2021/12/11 10:23:34;;;;;;;130.63;48.03;;;;;;;-4.01;96.30;100440.30;5199269;55;1141036;-82
2021/12/11 10:28:45;;;;;;;132.00;49.87;;;;;;;-3.96;96.87;100447.93;5156698;56;1141289;-81
2021/12/11 10:33:52;;;;;;;147.00;57.27;;;;;;;-3.80;97.06;100460.95;5155189;56;1141179;-81
2021/12/11 10:38:59;;;;;;;164.07;68.45;;;;;;;-3.66;97.08;100460.67;5213849;56;1141295;-82
2021/12/11 10:44:21;;;;;;;157.53;64.57;;;;;;;-3.58;96.72;100471.72;5218484;56;1139281;-82
2021/12/11 10:49:27;;;;;;;173.32;71.97;;;;;;;-3.51;96.13;100468.58;5175205;56;1143091;-81
2021/12/11 10:54:33;;;;;;;166.45;66.72;;;;;;;-3.55;95.67;100477.69;5194204;56;1143169;-81
2021/12/11 10:59:43;;;;;;;192.40;78.43;;;;;;;-3.57;95.71;100482.03;5162907;56;1143409;-81
2021/12/11 11:04:53;;;;;;;151.47;61.77;;;;;;;-3.51;96.11;100487.97;5141442;56;1142613;-82
2021/12/11 11:10:02;;;;;;;167.63;67.40;;;;;;;-3.40;96.57;100500.22;5146511;56;1143447;-81
2021/12/11 11:15:11;;;;;;;241.50;97.27;;;;;;;-3.30;96.53;100490.08;5121015;57;1143121;-79
2021/12/11 11:20:22;;;;;;;157.43;65.50;;;;;;;-3.16;96.86;100494.95;5117913;57;1143198;-78
2021/12/11 11:25:32;;;;;;;164.63;66.87;;;;;;;-3.02;97.02;100492.47;5121011;57;1143180;-79
2021/12/11 11:30:43;;;;;;;164.30;68.80;;;;;;;-2.86;97.46;100498.14;5118009;57;1143179;-79
2021/12/11 11:35:50;;;;;;;192.23;75.00;;;;;;;-2.67;97.29;100506.33;5121535;57;1143245;-79
2021/12/11 11:41:01;;;;;;;192.33;82.67;;;;;;;-2.46;97.85;100511.00;5121555;57;1143184;-79
2021/12/11 11:46:08;;;;;;;159.73;70.23;;;;;;;-2.10;99.12;100523.45;5173369;56;1143227;-79
2021/12/11 11:51:18;;;;;;;176.43;77.03;;;;;;;-1.75;99.16;100528.16;5210065;56;1143185;-79
2021/12/11 11:56:28;;;;;;;168.83;74.73;;;;;;;-1.25;99.80;100539.72;5173562;56;1143301;-78
2021/12/11 12:01:40;;;;;;;195.03;80.40;;;;;;;-0.78;100.00;100537.86;5130757;56;1143194;-79
2021/12/11 12:06:54;;;;;;;284.20;107.93;;;;;;;-0.42;99.29;100557.06;5133713;56;1145392;-77
2021/12/11 12:12:00;;;;;;;180.20;74.13;;;;;;;-0.25;96.67;100572.96;5142993;56;1144649;-77
2021/12/11 12:17:09;;;;;;;218.73;88.20;;;;;;;-0.31;95.52;100580.13;5143111;56;1143511;-78
2021/12/11 12:22:17;;;;;;;174.40;72.70;;;;;;;-0.37;95.32;100576.81;5150510;56;1143213;-78
2021/12/11 12:27:27;;;;;;;215.77;87.63;;;;;;;-0.08;97.90;100587.56;5145468;56;1143463;-78
2021/12/11 12:32:36;;;;;;;162.47;69.83;;;;;;;0.34;97.68;100585.70;5145645;56;1143186;-78
2021/12/11 12:37:45;;;;;;;190.40;80.73;;;;;;;0.53;96.11;100584.17;5145589;56;1141071;-79
2021/12/11 12:42:56;;;;;;;181.10;82.50;;;;;;;0.72;96.31;100593.93;5201648;55;1141137;-78
2021/12/11 12:48:06;;;;;;;171.47;71.10;;;;;;;0.69;94.21;100601.39;5233417;55;1139070;-79
2021/12/11 12:53:13;;;;;;;873.87;296.07;;;;;;;0.65;93.51;100594.59;5169057;56;1139002;-79
2021/12/11 12:58:23;;;;;;;458.53;166.03;;;;;;;0.53;92.38;100608.89;5142131;57;1141176;-79
2021/12/11 13:03:33;;;;;;;537.43;219.77;;;;;;;0.27;91.98;100615.45;5141961;57;1141121;-78
2021/12/11 13:08:43;;;;;;;277.33;112.97;;;;;;;0.15;92.60;100622.37;5142228;57;1141349;-78
2021/12/11 13:13:50;;;;;;;149.73;69.90;;;;;;;0.13;92.85;100619.81;5145940;56;1141162;-78
2021/12/11 13:19:03;;;;;;;174.73;78.53;;;;;;;0.07;92.46;100625.20;5146779;56;1138949;-78
2021/12/11 13:24:14;;;;;;;197.33;85.47;;;;;;;0.21;94.49;100629.50;5146911;55;1139053;-78
2021/12/11 13:29:24;;;;;;;146.73;61.27;;;;;;;0.10;92.60;100645.06;5145519;56;1139035;-78
2021/12/11 13:34:34;;;;;;;166.47;67.13;;;;;;;-0.40;91.45;100656.15;5164439;56;1139022;-78
2021/12/11 13:39:41;;;;;;;171.90;67.63;;;;;;;-0.85;92.08;100674.38;5208482;56;1139268;-79
2021/12/11 13:44:52;;;;;;;163.20;68.37;;;;;;;-1.20;92.65;100682.69;5232381;55;1139030;-81
2021/12/11 13:50:02;;;;;;;171.53;72.17;;;;;;;-1.45;93.27;100681.20;5196558;55;1143150;-80
2021/12/11 14:06:53;;;;;;;245.60;91.73;;;;;;;-1.51;96.21;100702.53;5275152;55;46935;-79
2021/12/11 14:11:58;;;;;;;203.67;87.50;;;;;;;-1.52;96.24;100713.80;5052408;58;1139155;-77
2021/12/11 14:17:05;;;;;;;252.30;100.03;;;;;;;-1.45;96.57;100717.95;5020052;58;1143251;-79
2021/12/11 14:22:10;;;;;;;266.47;109.37;;;;;;;-1.45;96.21;100716.22;4973627;58;1145341;-79
2021/12/11 14:27:18;;;;;;;274.47;118.07;;;;;;;-1.59;95.56;100727.38;4965612;58;1145317;-79
2021/12/11 14:32:28;;;;;;;456.15;192.98;;;;;;;-1.71;94.94;100735.91;4991761;57;1145205;-79
2021/12/11 14:37:34;;;;;;;346.73;127.97;;;;;;;-1.82;95.18;100738.29;5142539;57;1145545;-79
2021/12/11 14:42:42;;;;;;;388.67;147.33;;;;;;;-1.92;94.85;100744.58;5144064;57;1145230;-79
2021/12/11 14:47:50;;;;;;;362.17;141.60;;;;;;;-2.04;94.50;100747.45;5140482;57;1145487;-80
2021/12/11 14:52:56;;;;;;;381.17;141.50;;;;;;;-2.11;95.00;100757.53;5115733;57;1145243;-79
2021/12/11 14:58:02;;;;;;;349.30;137.50;;;;;;;-2.25;94.44;100763.02;5109879;57;1145128;-78
2021/12/11 15:03:10;;;;;;;344.23;130.17;;;;;;;-2.26;94.94;100778.59;5161221;56;1145391;-79
2021/12/11 15:08:21;;;;;;;301.58;116.35;;;;;;;-2.29;94.83;100778.20;5185767;56;1145361;-79
2021/12/11 15:13:27;;;;;;;323.15;120.45;;;;;;;-2.37;94.35;100781.86;5184463;56;1145286;-79
2021/12/11 15:18:34;;;;;;;331.67;121.77;;;;;;;-2.42;94.44;100794.03;5175126;57;1145363;-77
2021/12/11 15:23:41;;;;;;;337.73;125.73;;;;;;;-2.49;93.92;100801.95;5159777;57;1145089;-79
2021/12/11 15:28:47;;;;;;;360.23;152.27;;;;;;;-2.54;94.23;100804.20;5163161;56;1145418;-79
2021/12/11 15:33:56;;;;;;;272.82;113.35;;;;;;;-2.63;93.75;100806.98;5181389;57;1145288;-78
2021/12/11 15:39:10;;;;;;;279.53;121.03;;;;;;;-2.85;92.91;100819.45;5173314;57;1145306;-78
2021/12/11 15:44:18;;;;;;;254.68;98.72;;;;;;;-2.92;93.34;100823.91;5158889;57;1145397;-79
2021/12/11 15:49:24;;;;;;;234.53;87.93;;;;;;;-2.99;93.17;100818.84;5153895;57;1143307;-76
2021/12/11 15:54:29;;;;;;;362.23;131.80;;;;;;;-3.10;93.07;100831.98;5158512;57;1143391;-80
2021/12/11 15:59:36;;;;;;;409.07;157.23;;;;;;;-3.30;93.24;100850.39;5148402;56;1145075;-79
2021/12/11 16:04:43;;;;;;;379.60;152.33;;;;;;;-3.29;94.04;100853.84;5179075;57;1145248;-78
2021/12/11 16:09:50;;;;;;;342.23;134.10;;;;;;;-3.30;94.29;100854.27;5183553;57;1143193;-78
2021/12/11 16:14:56;;;;;;;283.03;112.30;;;;;;;-3.27;94.55;100859.41;5160328;56;1143228;-80
2021/12/11 16:20:04;;;;;;;521.43;218.07;;;;;;;-3.15;95.23;100858.78;5186962;57;1143159;-78
2021/12/11 16:25:23;;;;;;;443.80;181.03;;;;;;;-3.12;94.74;100869.09;5165516;57;1143206;-79
2021/12/11 16:30:32;;;;;;;399.80;159.37;;;;;;;-3.03;95.56;100873.66;5080364;58;1143146;-78
2021/12/11 16:35:45;;;;;;;483.13;218.20;;;;;;;-3.01;95.06;100868.47;5095691;57;1143522;-80
2021/12/11 16:40:51;;;;;;;358.07;170.13;;;;;;;-2.96;95.44;100877.87;5022828;58;1143589;-80
2021/12/11 16:45:59;;;;;;;316.50;138.27;;;;;;;-2.98;95.02;100883.51;5013946;58;1143352;-79
2021/12/11 16:51:10;;;;;;;274.13;109.10;;;;;;;-3.07;94.07;100896.61;5035467;58;1143165;-80
2021/12/11 16:56:20;;;;;;;269.00;106.80;;;;;;;-3.11;94.46;100900.55;5034141;58;1143231;-80
2021/12/11 17:01:30;;;;;;;328.07;119.17;;;;;;;-3.14;94.40;100914.38;5029793;58;1143228;-79
2021/12/11 17:06:40;;;;;;;354.63;131.67;;;;;;;-3.12;94.72;100917.80;5030091;58;1141241;-78
2021/12/11 17:11:47;;;;;;;304.03;107.00;;;;;;;-3.08;94.88;100933.70;5050234;58;1145344;-79
2021/12/11 17:16:53;;;;;;;280.50;106.73;;;;;;;-3.28;93.77;100935.28;5053031;58;1145387;-78
2021/12/11 17:21:59;;;;;;;280.83;106.37;;;;;;;-3.43;93.78;100944.98;5050809;58;1145403;-78
2021/12/11 17:27:07;;;;;;;256.13;95.03;;;;;;;-3.61;93.76;100940.47;5077282;58;1145475;-79
2021/12/11 17:32:13;;;;;;;300.50;109.40;;;;;;;-3.78;93.88;100944.14;4927920;59;1142563;-78
2021/12/11 17:37:19;;;;;;;260.33;88.17;;;;;;;-3.94;94.10;100957.23;5000934;58;1145326;-80
2021/12/11 17:42:26;;;;;;;257.77;96.50;;;;;;;-4.09;94.45;100965.59;5020541;58;1143446;-77
2021/12/11 17:47:31;;;;;;;203.60;71.15;;;;;;;-4.23;94.90;100970.91;4991874;58;1143194;-82
2021/12/11 17:52:36;;;;;;;238.87;86.50;;;;;;;-4.25;95.69;100981.69;5062703;58;1143296;-80
2021/12/11 17:57:42;;;;;;;213.60;80.17;;;;;;;-4.24;96.04;100989.85;5036615;58;1143537;-79
2021/12/11 18:02:49;;;;;;;208.73;75.70;;;;;;;-4.26;96.50;101004.50;5072743;57;1143348;-78
2021/12/11 18:07:56;;;;;;;217.40;78.67;;;;;;;-4.28;96.94;101007.09;5152581;56;1143214;-78
2021/12/11 18:13:14;;;;;;;193.97;73.47;;;;;;;-4.25;97.45;101006.22;5152821;56;1143640;-78
2021/12/11 18:18:19;;;;;;;220.47;84.07;;;;;;;-4.23;97.86;101012.66;5169499;57;1143208;-82
2021/12/11 18:23:29;;;;;;;212.37;81.30;;;;;;;-4.27;98.23;101029.90;5181935;57;1143271;-78
2021/12/11 18:28:38;;;;;;;186.50;68.53;;;;;;;-4.26;98.49;101042.80;5181860;57;1143247;-80
2021/12/11 18:33:44;;;;;;;211.77;78.13;;;;;;;-4.16;98.96;101056.94;5135045;56;1143201;-82
2021/12/11 18:38:51;;;;;;;130.40;44.73;;;;;;;-4.20;99.04;101059.98;5147220;57;1143152;-81
2021/12/11 18:44:02;;;;;;;206.90;72.97;;;;;;;-4.23;99.37;101061.72;5157212;56;1143466;-82
2021/12/11 18:49:12;;;;;;;163.23;59.27;;;;;;;-4.28;99.65;101069.06;5154327;57;1143175;-82
2021/12/11 18:54:27;;;;;;;162.88;55.75;;;;;;;-4.30;100.00;101084.17;5151849;56;1143351;-81
2021/12/11 18:59:37;;;;;;;58.27;21.40;;;;;;;-4.38;100.00;101084.66;5112203;57;1145324;-82
2021/12/11 19:04:47;;;;;;;139.63;44.97;;;;;;;-4.45;100.00;101092.03;5181344;57;1143343;-79
2021/12/11 19:09:56;;;;;;;156.80;53.70;;;;;;;-4.49;100.00;101101.52;5173323;56;1145163;-81
2021/12/11 19:15:15;;;;;;;134.73;44.00;;;;;;;-4.47;100.00;101110.55;5153650;57;1145231;-80
2021/12/11 19:20:26;;;;;;;209.07;71.53;;;;;;;-4.46;100.00;101119.58;5129729;56;1145509;-82
2021/12/11 19:25:33;;;;;;;158.97;50.83;;;;;;;-4.37;100.00;101129.83;5141694;57;1143162;-80
2021/12/11 19:30:43;;;;;;;222.23;89.60;;;;;;;-4.24;100.00;101130.59;5165109;57;1143263;-82
2021/12/11 19:35:53;;;;;;;255.77;108.10;;;;;;;-4.12;100.00;101135.66;5158629;56;1143269;-81
2021/12/11 19:41:01;;;;;;;188.18;62.65;;;;;;;-3.99;100.00;101142.47;5165478;57;1145313;-81
2021/12/11 19:46:09;;;;;;;169.60;55.67;;;;;;;-3.87;100.00;101154.84;5161643;57;1143041;-80
2021/12/11 19:51:22;;;;;;;188.80;63.40;;;;;;;-3.88;100.00;101172.52;5170502;57;1143370;-81
2021/12/11 19:56:29;;;;;;;136.17;47.27;;;;;;;-3.87;100.00;101176.37;5157554;56;1143228;-81
2021/12/11 20:01:38;;;;;;;182.43;59.47;;;;;;;-3.83;100.00;101171.62;5173248;57;1143375;-81
2021/12/11 20:06:47;;;;;;;206.20;72.10;;;;;;;-3.85;100.00;101182.39;5193413;57;1143261;-82
2021/12/11 20:12:04;;;;;;;151.13;51.77;;;;;;;-3.78;100.00;101171.55;5237892;56;1143217;-82
2021/12/11 20:17:12;;;;;;;179.77;62.70;;;;;;;-3.68;100.00;101175.36;5240227;56;1141046;-79
2021/12/11 20:22:22;;;;;;;72.70;24.63;;;;;;;-3.59;100.00;101176.98;5238379;56;1248263;-82
2021/12/11 20:27:31;;;;;;;148.40;51.10;;;;;;;-3.55;100.00;101178.25;5240625;56;1143182;-82
2021/12/11 20:32:37;;;;;;;121.25;40.10;;;;;;;-3.60;100.00;101177.42;5240428;56;1145292;-80
2021/12/11 20:37:43;;;;;;;111.07;36.37;;;;;;;-3.66;100.00;101186.95;5240197;56;1145286;-82
2021/12/11 20:42:49;;;;;;;166.70;54.60;;;;;;;-3.71;100.00;101192.61;5238746;56;1145232;-79
2021/12/11 20:47:55;;;;;;;148.00;50.77;;;;;;;-3.74;100.00;101210.29;5239519;56;1145178;-81
2021/12/11 20:53:01;;;;;;;113.17;41.60;;;;;;;-3.75;100.00;101212.45;5239714;56;1145200;-82
2021/12/11 20:58:09;;;;;;;178.97;63.87;;;;;;;-3.76;100.00;101220.21;5239724;56;1145309;-79
2021/12/11 21:03:19;;;;;;;153.82;50.03;;;;;;;-3.80;100.00;101228.41;5167907;56;1145323;-81
2021/12/11 21:08:26;;;;;;;93.80;29.63;;;;;;;-3.76;100.00;101239.59;5034765;58;1145249;-81
2021/12/11 21:13:38;;;;;;;82.07;25.00;;;;;;;-3.72;100.00;101258.95;4939406;59;1143235;-79
2021/12/11 21:18:47;;;;;;;;;;;;;;;-3.70;100.00;101250.76;4954974;58;1143385;-81
2021/12/11 21:24:00;;;;;;;189.10;58.33;;;;;;;-3.66;100.00;101261.47;4884340;59;976347;-79
2021/12/11 21:29:09;;;;;;;126.27;42.03;;;;;;;-3.62;100.00;101254.13;4900013;59;1143163;-80
2021/12/11 21:34:16;;;;;;;68.77;21.40;;;;;;;-3.55;100.00;101267.87;4940971;60;1145344;-80
2021/12/11 21:39:28;;;;;;;95.47;32.00;;;;;;;-3.59;100.00;101273.93;4941044;59;1143221;-81
2021/12/11 21:44:34;;;;;;;100.45;32.75;;;;;;;-3.70;100.00;101280.92;4938687;57;1143174;-81
2021/12/11 21:49:49;;;;;;;118.67;39.40;;;;;;;-3.68;100.00;101306.33;4940692;59;1145344;-80
2021/12/11 21:54:59;;;;;;;96.80;31.10;;;;;;;-3.68;100.00;101309.77;4940733;58;1145383;-81
2021/12/11 22:00:40;;;;;;;90.17;28.83;;;;;;;-3.70;100.00;101316.67;4940324;59;1143234;-81
2021/12/11 22:05:56;;;;;;;131.22;38.00;;;;;;;-3.68;100.00;101316.23;5018682;58;1143339;-79
2021/12/11 22:11:06;;;;;;;73.17;22.43;;;;;;;-3.62;100.00;101325.66;5045064;58;1143296;-79
2021/12/11 22:16:17;;;;;;;45.15;16.07;;;;;;;-3.63;100.00;101322.20;5012970;57;1141218;-82
2021/12/11 22:21:26;;;;;;;102.75;34.90;;;;;;;-3.67;100.00;101331.31;4987988;57;1140971;-80
2021/12/11 22:26:39;;;;;;;68.63;24.17;;;;;;;-3.71;100.00;101340.80;4987807;57;1143085;-80
2021/12/11 22:31:53;;;;;;;96.00;35.80;;;;;;;-3.73;100.00;101339.09;4987791;57;1141165;-80
2021/12/11 22:37:03;;;;;;;101.30;31.93;;;;;;;-3.74;100.00;101351.58;4988412;57;1141115;-80
2021/12/11 22:42:13;;;;;;;71.50;23.83;;;;;;;-3.78;100.00;101348.58;4988157;57;1143202;-80
2021/12/11 22:47:25;;;;;;;85.57;24.70;;;;;;;-3.80;100.00;101361.94;4988112;58;1141336;-79
2021/12/11 22:52:31;;;;;;;103.77;31.30;;;;;;;-3.80;100.00;101380.03;4987555;57;1141069;-80
2021/12/11 22:57:39;;;;;;;72.57;20.70;;;;;;;-3.81;100.00;101371.85;4988074;57;1143138;-80
2021/12/11 23:02:45;;;;;;;77.40;26.40;;;;;;;-3.81;100.00;101371.85;4981971;57;1139111;-83
2021/12/11 23:07:55;;;;;;;82.13;25.57;;;;;;;-3.84;100.00;101375.34;4899303;59;1139017;-80